sensor_id;sensor_type;location;lat;lon;timestamp;P1;durP1;ratioP1;P2;durP2;ratioP2
69463;SDS011;56665;41.106;16.688;2022-10-31T00:00:57;19.60;;;9.43;;
69463;SDS011;56665;41.106;16.688;2022-10-31T00:04:01;20.75;;;9.88;;
69463;SDS011;56665;41.106;16.688;2022-10-31T00:07:06;19.52;;;10.10;;
69463;SDS011;56665;41.106;16.688;2022-10-31T00:10:10;19.73;;;9.63;;
69463;SDS011;56665;41.106;16.688;2022-10-31T00:13:14;18.05;;;9.68;;
69463;SDS011;56665;41.106;16.688;2022-10-31T00:16:21;23.20;;;10.15;;
69463;SDS011;56665;41.106;16.688;2022-10-31T00:19:26;17.23;;;9.57;;
69463;SDS011;56665;41.106;16.688;2022-10-31T00:22:34;16.92;;;9.35;;
69463;SDS011;56665;41.106;16.688;2022-10-31T00:25:39;19.80;;;9.20;;
69463;SDS011;56665;41.106;16.688;2022-10-31T00:28:43;17.42;;;9.27;;
69463;SDS011;56665;41.106;16.688;2022-10-31T00:31:47;17.05;;;9.25;;
69463;SDS011;56665;41.106;16.688;2022-10-31T00:34:51;18.38;;;8.70;;
69463;SDS011;56665;41.106;16.688;2022-10-31T00:37:55;19.30;;;8.90;;
69463;SDS011;56665;41.106;16.688;2022-10-31T00:40:59;17.33;;;8.73;;
69463;SDS011;56665;41.106;16.688;2022-10-31T00:44:03;22.50;;;9.82;;
69463;SDS011;56665;41.106;16.688;2022-10-31T00:47:07;19.58;;;9.30;;
69463;SDS011;56665;41.106;16.688;2022-10-31T00:50:11;18.45;;;8.73;;
69463;SDS011;56665;41.106;16.688;2022-10-31T00:53:15;18.05;;;9.88;;
69463;SDS011;56665;41.106;16.688;2022-10-31T00:56:20;21.80;;;9.63;;
69463;SDS011;56665;41.106;16.688;2022-10-31T00:59:24;17.45;;;8.80;;
69463;SDS011;56665;41.106;16.688;2022-10-31T01:02:28;17.25;;;8.82;;
69463;SDS011;56665;41.106;16.688;2022-10-31T01:05:33;17.80;;;8.60;;
69463;SDS011;56665;41.106;16.688;2022-10-31T01:08:39;14.65;;;8.20;;
69463;SDS011;56665;41.106;16.688;2022-10-31T01:11:44;18.13;;;8.73;;
69463;SDS011;56665;41.106;16.688;2022-10-31T01:14:48;17.55;;;7.90;;
69463;SDS011;56665;41.106;16.688;2022-10-31T01:17:54;15.38;;;8.13;;
69463;SDS011;56665;41.106;16.688;2022-10-31T01:21:03;17.08;;;7.68;;
69463;SDS011;56665;41.106;16.688;2022-10-31T01:24:08;15.35;;;7.32;;
69463;SDS011;56665;41.106;16.688;2022-10-31T01:27:15;15.10;;;7.23;;
69463;SDS011;56665;41.106;16.688;2022-10-31T01:30:19;14.30;;;7.60;;
69463;SDS011;56665;41.106;16.688;2022-10-31T01:33:22;14.15;;;7.38;;
69463;SDS011;56665;41.106;16.688;2022-10-31T01:36:29;13.60;;;6.53;;
69463;SDS011;56665;41.106;16.688;2022-10-31T01:39:34;13.40;;;6.70;;
69463;SDS011;56665;41.106;16.688;2022-10-31T01:42:38;12.30;;;6.27;;
69463;SDS011;56665;41.106;16.688;2022-10-31T01:45:42;12.43;;;6.20;;
69463;SDS011;56665;41.106;16.688;2022-10-31T01:48:52;12.40;;;6.20;;
69463;SDS011;56665;41.106;16.688;2022-10-31T01:51:58;17.52;;;6.43;;
69463;SDS011;56665;41.106;16.688;2022-10-31T01:55:30;10.98;;;6.25;;
69463;SDS011;56665;41.106;16.688;2022-10-31T01:58:39;15.20;;;6.57;;
69463;SDS011;56665;41.106;16.688;2022-10-31T02:01:45;13.43;;;5.80;;
69463;SDS011;56665;41.106;16.688;2022-10-31T02:04:50;13.63;;;6.60;;
69463;SDS011;56665;41.106;16.688;2022-10-31T02:08:04;13.40;;;6.97;;
69463;SDS011;56665;41.106;16.688;2022-10-31T02:11:14;14.35;;;6.68;;
69463;SDS011;56665;41.106;16.688;2022-10-31T02:14:22;13.53;;;6.83;;
69463;SDS011;56665;41.106;16.688;2022-10-31T02:17:29;14.30;;;6.47;;
69463;SDS011;56665;41.106;16.688;2022-10-31T02:20:43;12.75;;;6.53;;
69463;SDS011;56665;41.106;16.688;2022-10-31T02:47:29;15.10;;;6.23;;
69463;SDS011;56665;41.106;16.688;2022-10-31T02:50:39;11.98;;;6.22;;
69463;SDS011;56665;41.106;16.688;2022-10-31T02:53:47;14.63;;;7.20;;
69463;SDS011;56665;41.106;16.688;2022-10-31T02:56:53;14.18;;;6.88;;
69463;SDS011;56665;41.106;16.688;2022-10-31T03:00:07;13.93;;;6.97;;
69463;SDS011;56665;41.106;16.688;2022-10-31T03:03:20;16.00;;;6.80;;
69463;SDS011;56665;41.106;16.688;2022-10-31T03:06:47;16.33;;;7.10;;
69463;SDS011;56665;41.106;16.688;2022-10-31T03:13:35;15.38;;;6.65;;
69463;SDS011;56665;41.106;16.688;2022-10-31T03:16:50;14.10;;;6.78;;
69463;SDS011;56665;41.106;16.688;2022-10-31T03:19:55;14.63;;;6.60;;
69463;SDS011;56665;41.106;16.688;2022-10-31T03:23:04;14.20;;;6.30;;
69463;SDS011;56665;41.106;16.688;2022-10-31T03:26:12;13.93;;;6.35;;
69463;SDS011;56665;41.106;16.688;2022-10-31T03:29:18;16.20;;;6.43;;
69463;SDS011;56665;41.106;16.688;2022-10-31T03:32:32;10.48;;;5.78;;
69463;SDS011;56665;41.106;16.688;2022-10-31T03:35:47;14.87;;;6.00;;
69463;SDS011;56665;41.106;16.688;2022-10-31T03:38:54;13.57;;;6.13;;
69463;SDS011;56665;41.106;16.688;2022-10-31T03:42:05;13.98;;;6.10;;
69463;SDS011;56665;41.106;16.688;2022-10-31T03:45:20;15.40;;;6.13;;
69463;SDS011;56665;41.106;16.688;2022-10-31T03:48:30;13.15;;;6.20;;
69463;SDS011;56665;41.106;16.688;2022-10-31T03:54:58;14.30;;;5.97;;
69463;SDS011;56665;41.106;16.688;2022-10-31T03:58:21;17.55;;;6.88;;
69463;SDS011;56665;41.106;16.688;2022-10-31T04:01:30;14.77;;;6.47;;
69463;SDS011;56665;41.106;16.688;2022-10-31T04:04:38;16.33;;;6.53;;
69463;SDS011;56665;41.106;16.688;2022-10-31T04:07:44;14.17;;;6.53;;
69463;SDS011;56665;41.106;16.688;2022-10-31T04:10:50;17.35;;;6.50;;
69463;SDS011;56665;41.106;16.688;2022-10-31T04:13:56;16.45;;;6.70;;
69463;SDS011;56665;41.106;16.688;2022-10-31T04:17:03;11.80;;;6.50;;
69463;SDS011;56665;41.106;16.688;2022-10-31T04:20:15;15.55;;;6.05;;
69463;SDS011;56665;41.106;16.688;2022-10-31T04:23:22;15.97;;;6.00;;
69463;SDS011;56665;41.106;16.688;2022-10-31T04:26:28;14.43;;;6.22;;
69463;SDS011;56665;41.106;16.688;2022-10-31T04:29:35;16.20;;;6.47;;
69463;SDS011;56665;41.106;16.688;2022-10-31T04:32:39;14.07;;;6.85;;
69463;SDS011;56665;41.106;16.688;2022-10-31T04:35:43;12.82;;;6.60;;
69463;SDS011;56665;41.106;16.688;2022-10-31T04:38:47;19.43;;;7.87;;
69463;SDS011;56665;41.106;16.688;2022-10-31T04:42:08;17.25;;;7.22;;
69463;SDS011;56665;41.106;16.688;2022-10-31T04:45:13;19.25;;;8.13;;
69463;SDS011;56665;41.106;16.688;2022-10-31T04:48:18;16.92;;;7.47;;
69463;SDS011;56665;41.106;16.688;2022-10-31T04:51:22;20.48;;;7.80;;
69463;SDS011;56665;41.106;16.688;2022-10-31T04:54:26;15.67;;;7.60;;
69463;SDS011;56665;41.106;16.688;2022-10-31T04:57:31;22.02;;;8.40;;
69463;SDS011;56665;41.106;16.688;2022-10-31T05:00:39;23.63;;;8.45;;
69463;SDS011;56665;41.106;16.688;2022-10-31T05:03:43;19.20;;;8.60;;
69463;SDS011;56665;41.106;16.688;2022-10-31T05:06:48;22.23;;;9.43;;
69463;SDS011;56665;41.106;16.688;2022-10-31T05:09:51;18.87;;;8.03;;
69463;SDS011;56665;41.106;16.688;2022-10-31T05:12:47;15.85;;;7.68;;
69463;SDS011;56665;41.106;16.688;2022-10-31T05:16:09;17.40;;;7.57;;
69463;SDS011;56665;41.106;16.688;2022-10-31T05:19:31;16.85;;;6.68;;
69463;SDS011;56665;41.106;16.688;2022-10-31T05:22:58;18.27;;;8.07;;
69463;SDS011;56665;41.106;16.688;2022-10-31T05:26:02;13.23;;;5.90;;
69463;SDS011;56665;41.106;16.688;2022-10-31T05:29:06;13.77;;;6.78;;
69463;SDS011;56665;41.106;16.688;2022-10-31T05:32:10;13.80;;;6.47;;
69463;SDS011;56665;41.106;16.688;2022-10-31T05:35:32;14.68;;;6.45;;
69463;SDS011;56665;41.106;16.688;2022-10-31T05:39:04;15.52;;;7.05;;
69463;SDS011;56665;41.106;16.688;2022-10-31T05:42:15;12.47;;;6.10;;
69463;SDS011;56665;41.106;16.688;2022-10-31T05:45:19;15.60;;;6.85;;
69463;SDS011;56665;41.106;16.688;2022-10-31T05:48:31;21.35;;;8.10;;
69463;SDS011;56665;41.106;16.688;2022-10-31T05:52:04;22.48;;;9.85;;
69463;SDS011;56665;41.106;16.688;2022-10-31T05:55:15;24.30;;;10.38;;
69463;SDS011;56665;41.106;16.688;2022-10-31T05:58:34;21.10;;;9.07;;
69463;SDS011;56665;41.106;16.688;2022-10-31T06:01:41;16.67;;;8.35;;
69463;SDS011;56665;41.106;16.688;2022-10-31T06:05:00;16.17;;;7.80;;
69463;SDS011;56665;41.106;16.688;2022-10-31T06:08:05;14.93;;;7.28;;
69463;SDS011;56665;41.106;16.688;2022-10-31T06:11:13;17.95;;;7.55;;
69463;SDS011;56665;41.106;16.688;2022-10-31T06:14:35;20.10;;;7.43;;
69463;SDS011;56665;41.106;16.688;2022-10-31T06:17:41;18.77;;;6.95;;
69463;SDS011;56665;41.106;16.688;2022-10-31T06:21:05;17.65;;;8.10;;
69463;SDS011;56665;41.106;16.688;2022-10-31T06:24:08;17.30;;;7.85;;
69463;SDS011;56665;41.106;16.688;2022-10-31T06:27:32;20.88;;;9.68;;
69463;SDS011;56665;41.106;16.688;2022-10-31T06:30:45;14.20;;;7.90;;
69463;SDS011;56665;41.106;16.688;2022-10-31T06:33:49;19.17;;;8.40;;
69463;SDS011;56665;41.106;16.688;2022-10-31T06:36:53;20.50;;;8.27;;
69463;SDS011;56665;41.106;16.688;2022-10-31T06:40:00;16.92;;;8.80;;
69463;SDS011;56665;41.106;16.688;2022-10-31T06:43:04;19.77;;;10.35;;
69463;SDS011;56665;41.106;16.688;2022-10-31T06:46:09;18.60;;;9.20;;
69463;SDS011;56665;41.106;16.688;2022-10-31T06:49:20;21.83;;;10.77;;
69463;SDS011;56665;41.106;16.688;2022-10-31T06:52:30;25.45;;;12.18;;
69463;SDS011;56665;41.106;16.688;2022-10-31T06:55:35;24.77;;;11.18;;
69463;SDS011;56665;41.106;16.688;2022-10-31T06:58:39;23.83;;;11.88;;
69463;SDS011;56665;41.106;16.688;2022-10-31T07:01:45;22.40;;;10.00;;
69463;SDS011;56665;41.106;16.688;2022-10-31T07:04:49;23.83;;;10.85;;
69463;SDS011;56665;41.106;16.688;2022-10-31T07:07:58;20.77;;;11.02;;
69463;SDS011;56665;41.106;16.688;2022-10-31T07:11:04;22.40;;;10.98;;
69463;SDS011;56665;41.106;16.688;2022-10-31T07:14:08;23.60;;;11.57;;
69463;SDS011;56665;41.106;16.688;2022-10-31T07:17:12;25.53;;;10.97;;
69463;SDS011;56665;41.106;16.688;2022-10-31T07:20:20;25.20;;;11.43;;
69463;SDS011;56665;41.106;16.688;2022-10-31T07:23:25;19.70;;;10.32;;
69463;SDS011;56665;41.106;16.688;2022-10-31T07:27:00;19.67;;;9.68;;
69463;SDS011;56665;41.106;16.688;2022-10-31T07:30:06;18.42;;;9.50;;
69463;SDS011;56665;41.106;16.688;2022-10-31T07:33:13;20.60;;;10.27;;
69463;SDS011;56665;41.106;16.688;2022-10-31T07:36:40;23.35;;;10.27;;
69463;SDS011;56665;41.106;16.688;2022-10-31T07:39:44;21.23;;;8.93;;
69463;SDS011;56665;41.106;16.688;2022-10-31T07:42:48;21.25;;;8.65;;
69463;SDS011;56665;41.106;16.688;2022-10-31T07:46:33;13.55;;;6.90;;
69463;SDS011;56665;41.106;16.688;2022-10-31T07:49:55;13.03;;;6.80;;
69463;SDS011;56665;41.106;16.688;2022-10-31T07:53:37;15.27;;;6.50;;
69463;SDS011;56665;41.106;16.688;2022-10-31T07:57:00;14.55;;;6.60;;
69463;SDS011;56665;41.106;16.688;2022-10-31T08:00:05;12.35;;;6.80;;
69463;SDS011;56665;41.106;16.688;2022-10-31T08:03:19;12.68;;;6.35;;
69463;SDS011;56665;41.106;16.688;2022-10-31T08:06:43;11.60;;;6.13;;
69463;SDS011;56665;41.106;16.688;2022-10-31T08:09:54;11.77;;;6.13;;
69463;SDS011;56665;41.106;16.688;2022-10-31T08:13:08;9.30;;;5.47;;
69463;SDS011;56665;41.106;16.688;2022-10-31T08:16:17;8.82;;;5.45;;
69463;SDS011;56665;41.106;16.688;2022-10-31T08:19:44;9.52;;;5.00;;
69463;SDS011;56665;41.106;16.688;2022-10-31T08:22:56;10.33;;;5.33;;
69463;SDS011;56665;41.106;16.688;2022-10-31T08:26:06;10.63;;;5.00;;
69463;SDS011;56665;41.106;16.688;2022-10-31T08:29:10;9.40;;;5.25;;
69463;SDS011;56665;41.106;16.688;2022-10-31T08:32:14;12.30;;;5.25;;
69463;SDS011;56665;41.106;16.688;2022-10-31T08:35:36;10.45;;;5.38;;
69463;SDS011;56665;41.106;16.688;2022-10-31T08:39:06;9.30;;;4.73;;
69463;SDS011;56665;41.106;16.688;2022-10-31T08:42:10;7.28;;;4.60;;
69463;SDS011;56665;41.106;16.688;2022-10-31T08:45:15;13.65;;;4.95;;
69463;SDS011;56665;41.106;16.688;2022-10-31T08:48:21;14.77;;;5.25;;
69463;SDS011;56665;41.106;16.688;2022-10-31T08:51:25;10.00;;;5.65;;
69463;SDS011;56665;41.106;16.688;2022-10-31T08:54:32;9.77;;;5.10;;
69463;SDS011;56665;41.106;16.688;2022-10-31T08:57:55;18.38;;;6.13;;
69463;SDS011;56665;41.106;16.688;2022-10-31T09:01:00;15.73;;;5.68;;
69463;SDS011;56665;41.106;16.688;2022-10-31T09:04:07;13.27;;;5.18;;
69463;SDS011;56665;41.106;16.688;2022-10-31T09:07:10;16.35;;;5.38;;
69463;SDS011;56665;41.106;16.688;2022-10-31T09:10:15;9.17;;;4.43;;
69463;SDS011;56665;41.106;16.688;2022-10-31T09:13:21;13.07;;;4.65;;
69463;SDS011;56665;41.106;16.688;2022-10-31T09:16:54;8.15;;;4.38;;
69463;SDS011;56665;41.106;16.688;2022-10-31T09:20:07;8.55;;;4.00;;
69463;SDS011;56665;41.106;16.688;2022-10-31T09:23:19;11.20;;;4.40;;
69463;SDS011;56665;41.106;16.688;2022-10-31T09:26:25;10.00;;;4.73;;
69463;SDS011;56665;41.106;16.688;2022-10-31T09:29:41;9.32;;;4.90;;
69463;SDS011;56665;41.106;16.688;2022-10-31T09:32:54;7.40;;;4.35;;
69463;SDS011;56665;41.106;16.688;2022-10-31T09:35:59;9.25;;;4.47;;
69463;SDS011;56665;41.106;16.688;2022-10-31T09:39:04;8.10;;;3.97;;
69463;SDS011;56665;41.106;16.688;2022-10-31T09:52:29;7.65;;;3.88;;
69463;SDS011;56665;41.106;16.688;2022-10-31T09:55:40;8.15;;;3.90;;
69463;SDS011;56665;41.106;16.688;2022-10-31T09:58:49;6.63;;;3.50;;
69463;SDS011;56665;41.106;16.688;2022-10-31T10:05:34;7.32;;;3.30;;
69463;SDS011;56665;41.106;16.688;2022-10-31T10:08:57;6.43;;;3.50;;
69463;SDS011;56665;41.106;16.688;2022-10-31T10:26:10;6.57;;;3.42;;
69463;SDS011;56665;41.106;16.688;2022-10-31T10:32:27;6.30;;;2.60;;
69463;SDS011;56665;41.106;16.688;2022-10-31T10:35:33;9.93;;;5.28;;
69463;SDS011;56665;41.106;16.688;2022-10-31T10:38:58;7.38;;;4.18;;
69463;SDS011;56665;41.106;16.688;2022-10-31T10:42:12;12.70;;;9.50;;
69463;SDS011;56665;41.106;16.688;2022-10-31T10:45:36;7.50;;;4.93;;
69463;SDS011;56665;41.106;16.688;2022-10-31T10:58:40;8.70;;;5.00;;
69463;SDS011;56665;41.106;16.688;2022-10-31T11:01:45;8.55;;;4.95;;
69463;SDS011;56665;41.106;16.688;2022-10-31T11:04:54;8.77;;;5.00;;
69463;SDS011;56665;41.106;16.688;2022-10-31T11:08:02;8.02;;;5.10;;
69463;SDS011;56665;41.106;16.688;2022-10-31T11:14:31;5.88;;;2.55;;
69463;SDS011;56665;41.106;16.688;2022-10-31T11:17:39;5.32;;;2.70;;
69463;SDS011;56665;41.106;16.688;2022-10-31T11:20:57;7.53;;;3.10;;
69463;SDS011;56665;41.106;16.688;2022-10-31T11:24:14;7.50;;;3.88;;
69463;SDS011;56665;41.106;16.688;2022-10-31T11:27:24;9.68;;;3.80;;
69463;SDS011;56665;41.106;16.688;2022-10-31T11:30:29;8.23;;;3.15;;
69463;SDS011;56665;41.106;16.688;2022-10-31T11:33:45;7.95;;;3.28;;
69463;SDS011;56665;41.106;16.688;2022-10-31T11:36:51;6.87;;;4.50;;
69463;SDS011;56665;41.106;16.688;2022-10-31T11:40:02;6.25;;;3.90;;
69463;SDS011;56665;41.106;16.688;2022-10-31T11:43:13;22.08;;;4.60;;
69463;SDS011;56665;41.106;16.688;2022-10-31T11:46:23;7.43;;;3.08;;
69463;SDS011;56665;41.106;16.688;2022-10-31T11:49:44;7.55;;;3.22;;
69463;SDS011;56665;41.106;16.688;2022-10-31T11:52:53;8.27;;;3.57;;
69463;SDS011;56665;41.106;16.688;2022-10-31T11:56:04;12.25;;;3.60;;
69463;SDS011;56665;41.106;16.688;2022-10-31T11:59:34;8.20;;;2.97;;
69463;SDS011;56665;41.106;16.688;2022-10-31T12:02:38;14.25;;;5.03;;
69463;SDS011;56665;41.106;16.688;2022-10-31T12:05:44;8.35;;;4.32;;
69463;SDS011;56665;41.106;16.688;2022-10-31T12:08:50;9.90;;;3.80;;
69463;SDS011;56665;41.106;16.688;2022-10-31T12:12:06;5.43;;;3.05;;
69463;SDS011;56665;41.106;16.688;2022-10-31T12:18:24;6.88;;;4.18;;
69463;SDS011;56665;41.106;16.688;2022-10-31T12:35:25;8.50;;;3.85;;
69463;SDS011;56665;41.106;16.688;2022-10-31T12:38:42;4.97;;;3.28;;
69463;SDS011;56665;41.106;16.688;2022-10-31T12:42:00;6.83;;;3.20;;
69463;SDS011;56665;41.106;16.688;2022-10-31T12:48:24;10.82;;;3.88;;
69463;SDS011;56665;41.106;16.688;2022-10-31T12:59:17;7.90;;;3.67;;
69463;SDS011;56665;41.106;16.688;2022-10-31T13:05:51;5.13;;;2.67;;
69463;SDS011;56665;41.106;16.688;2022-10-31T13:09:00;8.18;;;3.70;;
69463;SDS011;56665;41.106;16.688;2022-10-31T13:12:10;6.53;;;2.95;;
69463;SDS011;56665;41.106;16.688;2022-10-31T13:15:19;6.93;;;3.10;;
69463;SDS011;56665;41.106;16.688;2022-10-31T13:18:27;6.00;;;2.90;;
69463;SDS011;56665;41.106;16.688;2022-10-31T13:21:37;7.65;;;3.30;;
69463;SDS011;56665;41.106;16.688;2022-10-31T13:31:34;9.43;;;3.37;;
69463;SDS011;56665;41.106;16.688;2022-10-31T13:34:44;10.05;;;3.55;;
69463;SDS011;56665;41.106;16.688;2022-10-31T13:38:05;7.30;;;3.58;;
69463;SDS011;56665;41.106;16.688;2022-10-31T13:44:38;7.97;;;3.40;;
69463;SDS011;56665;41.106;16.688;2022-10-31T13:47:42;5.50;;;2.93;;
69463;SDS011;56665;41.106;16.688;2022-10-31T13:54:18;7.53;;;3.35;;
69463;SDS011;56665;41.106;16.688;2022-10-31T13:57:38;10.48;;;3.92;;
69463;SDS011;56665;41.106;16.688;2022-10-31T14:00:46;8.90;;;3.67;;
69463;SDS011;56665;41.106;16.688;2022-10-31T14:04:07;7.25;;;3.80;;
69463;SDS011;56665;41.106;16.688;2022-10-31T14:07:19;8.95;;;3.78;;
69463;SDS011;56665;41.106;16.688;2022-10-31T14:10:30;7.45;;;3.97;;
69463;SDS011;56665;41.106;16.688;2022-10-31T14:13:42;10.48;;;4.10;;
69463;SDS011;56665;41.106;16.688;2022-10-31T14:16:52;6.25;;;3.25;;
69463;SDS011;56665;41.106;16.688;2022-10-31T14:26:34;7.97;;;3.17;;
69463;SDS011;56665;41.106;16.688;2022-10-31T14:29:39;6.95;;;3.50;;
69463;SDS011;56665;41.106;16.688;2022-10-31T14:32:43;7.50;;;3.50;;
69463;SDS011;56665;41.106;16.688;2022-10-31T14:49:10;7.63;;;3.70;;
69463;SDS011;56665;41.106;16.688;2022-10-31T14:52:18;6.82;;;2.92;;
69463;SDS011;56665;41.106;16.688;2022-10-31T14:55:23;9.43;;;3.70;;
69463;SDS011;56665;41.106;16.688;2022-10-31T14:58:36;7.05;;;3.60;;
69463;SDS011;56665;41.106;16.688;2022-10-31T15:01:48;8.50;;;3.47;;
69463;SDS011;56665;41.106;16.688;2022-10-31T15:05:00;9.15;;;4.07;;
69463;SDS011;56665;41.106;16.688;2022-10-31T15:08:04;9.48;;;3.72;;
69463;SDS011;56665;41.106;16.688;2022-10-31T15:11:09;9.27;;;4.40;;
69463;SDS011;56665;41.106;16.688;2022-10-31T15:14:25;8.25;;;3.55;;
69463;SDS011;56665;41.106;16.688;2022-10-31T15:17:33;6.15;;;3.92;;
69463;SDS011;56665;41.106;16.688;2022-10-31T15:20:38;8.05;;;3.92;;
69463;SDS011;56665;41.106;16.688;2022-10-31T15:23:49;9.15;;;4.18;;
69463;SDS011;56665;41.106;16.688;2022-10-31T15:26:57;10.50;;;4.30;;
69463;SDS011;56665;41.106;16.688;2022-10-31T15:30:02;9.60;;;4.45;;
69463;SDS011;56665;41.106;16.688;2022-10-31T15:33:20;10.52;;;4.80;;
69463;SDS011;56665;41.106;16.688;2022-10-31T15:36:27;9.68;;;4.90;;
69463;SDS011;56665;41.106;16.688;2022-10-31T15:39:31;10.00;;;4.68;;
69463;SDS011;56665;41.106;16.688;2022-10-31T15:42:44;9.37;;;4.23;;
69463;SDS011;56665;41.106;16.688;2022-10-31T15:46:04;9.32;;;4.35;;
69463;SDS011;56665;41.106;16.688;2022-10-31T15:49:18;15.10;;;4.43;;
69463;SDS011;56665;41.106;16.688;2022-10-31T15:52:51;10.07;;;4.50;;
69463;SDS011;56665;41.106;16.688;2022-10-31T15:55:59;9.40;;;4.68;;
69463;SDS011;56665;41.106;16.688;2022-10-31T15:59:05;8.47;;;4.50;;
69463;SDS011;56665;41.106;16.688;2022-10-31T16:02:21;11.93;;;5.03;;
69463;SDS011;56665;41.106;16.688;2022-10-31T16:05:32;14.07;;;5.20;;
69463;SDS011;56665;41.106;16.688;2022-10-31T16:08:44;12.90;;;5.43;;
69463;SDS011;56665;41.106;16.688;2022-10-31T16:11:51;10.18;;;4.90;;
69463;SDS011;56665;41.106;16.688;2022-10-31T16:14:56;11.13;;;5.93;;
69463;SDS011;56665;41.106;16.688;2022-10-31T16:18:00;14.88;;;5.55;;
69463;SDS011;56665;41.106;16.688;2022-10-31T16:21:04;14.68;;;6.70;;
69463;SDS011;56665;41.106;16.688;2022-10-31T16:27:23;18.40;;;7.20;;
69463;SDS011;56665;41.106;16.688;2022-10-31T16:33:42;18.38;;;7.57;;
69463;SDS011;56665;41.106;16.688;2022-10-31T16:36:46;15.55;;;6.75;;
69463;SDS011;56665;41.106;16.688;2022-10-31T16:39:50;21.92;;;7.25;;
69463;SDS011;56665;41.106;16.688;2022-10-31T16:42:56;21.27;;;7.65;;
69463;SDS011;56665;41.106;16.688;2022-10-31T16:46:01;21.30;;;7.57;;
69463;SDS011;56665;41.106;16.688;2022-10-31T16:49:07;21.05;;;9.15;;
69463;SDS011;56665;41.106;16.688;2022-10-31T16:52:12;23.48;;;9.75;;
69463;SDS011;56665;41.106;16.688;2022-10-31T16:55:16;29.90;;;10.05;;
69463;SDS011;56665;41.106;16.688;2022-10-31T16:58:24;24.00;;;8.93;;
69463;SDS011;56665;41.106;16.688;2022-10-31T17:01:30;24.77;;;9.30;;
69463;SDS011;56665;41.106;16.688;2022-10-31T17:04:34;25.75;;;12.32;;
69463;SDS011;56665;41.106;16.688;2022-10-31T17:07:38;35.65;;;17.13;;
69463;SDS011;56665;41.106;16.688;2022-10-31T17:10:42;37.70;;;18.63;;
69463;SDS011;56665;41.106;16.688;2022-10-31T17:13:48;32.25;;;16.98;;
69463;SDS011;56665;41.106;16.688;2022-10-31T17:16:51;28.33;;;13.40;;
69463;SDS011;56665;41.106;16.688;2022-10-31T17:19:55;37.63;;;16.42;;
69463;SDS011;56665;41.106;16.688;2022-10-31T17:22:59;30.55;;;14.45;;
69463;SDS011;56665;41.106;16.688;2022-10-31T17:26:03;34.40;;;15.65;;
69463;SDS011;56665;41.106;16.688;2022-10-31T17:29:09;28.48;;;12.57;;
69463;SDS011;56665;41.106;16.688;2022-10-31T17:32:13;21.07;;;10.27;;
69463;SDS011;56665;41.106;16.688;2022-10-31T17:35:17;18.42;;;8.80;;
69463;SDS011;56665;41.106;16.688;2022-10-31T17:38:23;19.58;;;9.15;;
69463;SDS011;56665;41.106;16.688;2022-10-31T17:41:27;22.30;;;9.10;;
69463;SDS011;56665;41.106;16.688;2022-10-31T17:44:30;23.05;;;9.35;;
69463;SDS011;56665;41.106;16.688;2022-10-31T17:47:34;22.33;;;9.03;;
69463;SDS011;56665;41.106;16.688;2022-10-31T17:50:40;23.95;;;9.00;;
69463;SDS011;56665;41.106;16.688;2022-10-31T17:53:45;22.10;;;9.63;;
69463;SDS011;56665;41.106;16.688;2022-10-31T17:56:48;21.80;;;9.25;;
69463;SDS011;56665;41.106;16.688;2022-10-31T17:59:52;23.13;;;10.95;;
69463;SDS011;56665;41.106;16.688;2022-10-31T18:02:56;29.17;;;12.40;;
69463;SDS011;56665;41.106;16.688;2022-10-31T18:06:00;38.65;;;15.98;;
69463;SDS011;56665;41.106;16.688;2022-10-31T18:09:04;52.15;;;20.25;;
69463;SDS011;56665;41.106;16.688;2022-10-31T18:12:09;58.60;;;22.48;;
69463;SDS011;56665;41.106;16.688;2022-10-31T18:15:13;61.65;;;23.42;;
69463;SDS011;56665;41.106;16.688;2022-10-31T18:18:18;64.27;;;24.97;;
69463;SDS011;56665;41.106;16.688;2022-10-31T18:21:21;70.30;;;25.70;;
69463;SDS011;56665;41.106;16.688;2022-10-31T18:24:25;71.13;;;27.58;;
69463;SDS011;56665;41.106;16.688;2022-10-31T18:27:30;72.50;;;27.17;;
69463;SDS011;56665;41.106;16.688;2022-10-31T18:30:37;66.68;;;24.25;;
69463;SDS011;56665;41.106;16.688;2022-10-31T18:33:42;60.37;;;21.77;;
69463;SDS011;56665;41.106;16.688;2022-10-31T18:36:47;57.30;;;20.67;;
69463;SDS011;56665;41.106;16.688;2022-10-31T18:39:51;48.22;;;17.88;;
69463;SDS011;56665;41.106;16.688;2022-10-31T18:42:56;37.08;;;14.65;;
69463;SDS011;56665;41.106;16.688;2022-10-31T18:46:03;34.63;;;15.00;;
69463;SDS011;56665;41.106;16.688;2022-10-31T18:49:08;35.97;;;13.87;;
69463;SDS011;56665;41.106;16.688;2022-10-31T18:52:12;32.22;;;13.48;;
69463;SDS011;56665;41.106;16.688;2022-10-31T18:55:16;29.58;;;12.98;;
69463;SDS011;56665;41.106;16.688;2022-10-31T18:58:19;32.08;;;13.50;;
69463;SDS011;56665;41.106;16.688;2022-10-31T19:01:24;39.58;;;15.60;;
69463;SDS011;56665;41.106;16.688;2022-10-31T19:04:28;31.40;;;12.80;;
69463;SDS011;56665;41.106;16.688;2022-10-31T19:07:32;25.88;;;11.25;;
69463;SDS011;56665;41.106;16.688;2022-10-31T19:10:37;25.58;;;11.13;;
69463;SDS011;56665;41.106;16.688;2022-10-31T19:13:41;24.85;;;10.25;;
69463;SDS011;56665;41.106;16.688;2022-10-31T19:16:46;27.77;;;10.60;;
69463;SDS011;56665;41.106;16.688;2022-10-31T19:19:50;20.23;;;9.13;;
69463;SDS011;56665;41.106;16.688;2022-10-31T19:22:54;22.98;;;9.27;;
69463;SDS011;56665;41.106;16.688;2022-10-31T19:25:58;17.58;;;8.52;;
69463;SDS011;56665;41.106;16.688;2022-10-31T19:29:04;23.00;;;9.52;;
69463;SDS011;56665;41.106;16.688;2022-10-31T19:32:08;19.48;;;8.60;;
69463;SDS011;56665;41.106;16.688;2022-10-31T19:35:12;18.87;;;8.80;;
69463;SDS011;56665;41.106;16.688;2022-10-31T19:38:18;22.83;;;9.27;;
69463;SDS011;56665;41.106;16.688;2022-10-31T19:41:25;22.02;;;10.15;;
69463;SDS011;56665;41.106;16.688;2022-10-31T19:44:31;20.60;;;9.98;;
69463;SDS011;56665;41.106;16.688;2022-10-31T19:47:36;20.17;;;9.75;;
69463;SDS011;56665;41.106;16.688;2022-10-31T19:50:40;21.73;;;9.33;;
69463;SDS011;56665;41.106;16.688;2022-10-31T19:53:43;23.02;;;10.40;;
69463;SDS011;56665;41.106;16.688;2022-10-31T19:56:47;20.77;;;10.30;;
69463;SDS011;56665;41.106;16.688;2022-10-31T19:59:51;18.83;;;9.23;;
69463;SDS011;56665;41.106;16.688;2022-10-31T20:02:55;18.92;;;10.30;;
69463;SDS011;56665;41.106;16.688;2022-10-31T20:06:01;22.83;;;9.67;;
69463;SDS011;56665;41.106;16.688;2022-10-31T20:09:10;22.13;;;9.25;;
69463;SDS011;56665;41.106;16.688;2022-10-31T20:12:18;19.92;;;9.30;;
69463;SDS011;56665;41.106;16.688;2022-10-31T20:15:23;21.80;;;9.20;;
69463;SDS011;56665;41.106;16.688;2022-10-31T20:18:26;19.08;;;8.88;;
69463;SDS011;56665;41.106;16.688;2022-10-31T20:21:34;18.87;;;8.67;;
69463;SDS011;56665;41.106;16.688;2022-10-31T20:24:40;21.17;;;8.30;;
69463;SDS011;56665;41.106;16.688;2022-10-31T20:27:44;17.35;;;8.38;;
69463;SDS011;56665;41.106;16.688;2022-10-31T20:30:49;25.10;;;11.13;;
69463;SDS011;56665;41.106;16.688;2022-10-31T20:33:53;18.75;;;9.95;;
69463;SDS011;56665;41.106;16.688;2022-10-31T20:36:58;16.63;;;7.80;;
69463;SDS011;56665;41.106;16.688;2022-10-31T20:40:01;19.52;;;7.93;;
69463;SDS011;56665;41.106;16.688;2022-10-31T20:43:06;18.85;;;8.60;;
69463;SDS011;56665;41.106;16.688;2022-10-31T20:46:11;13.50;;;7.82;;
69463;SDS011;56665;41.106;16.688;2022-10-31T20:49:22;14.95;;;7.03;;
69463;SDS011;56665;41.106;16.688;2022-10-31T20:52:26;19.67;;;6.90;;